AirNav   TITAN Aviation Fuels
 
 372 users online  

34WA Orbit Heliport
Washougal, Washington, USA

GOING TO WASHOUGAL?


FAA INFORMATION EFFECTIVE 22 APRIL 2021

Location

FAA Identifier: 34WA
Lat/Long: 45-34-04.4280N 122-19-09.3290W
45-34.073800N 122-19.155483W
45.5678967,-122.3192581
(estimated)
Elevation: 22 ft. / 7 m (estimated)
Variation: 19E (1985)
Time zone: UTC -7 (UTC -8 during Standard Time)
Zip code: 98671

Heliport Operations

Heliport use: Private use. Permission required prior to landing
Activation date: 09/1975
Control tower: no
ARTCC: SEATTLE CENTER
FSS: SEATTLE FLIGHT SERVICE STATION
Attendance: 0800-1700
Wind indicator: yes
Segmented circle: yes

Heliport Communications

WX ASOS at TTD (4 nm W): 135.625 (503-492-2887)
WX ASOS at PDX (12 nm W): PHONE (503) 493-7687
WX ASOS at VUO (15 nm W): 135.125 (360-696-1280)

Nearby radio navigation aids

VOR radial/distance  VOR name  Freq  Var
BTGr112/15.7BATTLE GROUND VORTAC116.6021E
UBGr044/30.6NEWBERG VOR/DME117.4021E

 
NDB name  Hdg/Dist  Freq  Var  ID
BANKS081/30.735616EPND .--. -. -..

Heliport Services

Runway Information

Helipad H1

Dimensions: 50 x 50 ft. / 15 x 15 m
Surface: asphalt, in fair condition
Latitude: 45-34.073800N
Longitude: 122-19.155483W
Elevation: 22.0 ft.
Traffic pattern: leftleft
Markings: none, in fair condition

Heliport Ownership and Management from official FAA records

Ownership: Privately-owned
Owner: ORBIT INDUSTRIES INC
778 S 27TH ST
WASHOUGAL, WA 98671
Manager: C W KELLOGG
BOX 663
BATTLEGROUND, WA 98604
Phone 206-835-8526

Heliport Operational Statistics

Aircraft based on the field: 1
Helicopters: 1
    

Additional Remarks

A52-H1 40' PWR LINE 330' N. 40' POLE 195' E. 40' PWR LINE 170' S. 24' BLDG 125' W.
FOR CD CTC PORTLAND APCH AT 503-493-7545.

Instrument Procedures

There are no published instrument procedures at 34WA.

Some nearby airports with instrument procedures:

KTTD - Portland-Troutdale Airport (4 nm W)
KPDX - Portland International Airport (12 nm W)
KVUO - Pearson Field Airport (15 nm W)
KSPB - Scappoose Industrial Airpark (26 nm NW)
KHIO - Portland-Hillsboro Airport (27 nm W)
 
Loc | Ops | Rwys | IFR | FBO | Links
Com | Nav | Svcs | Stats | Notes
Area around 34WA (Orbit Heliport)
 
Road maps at: MapQuest Bing Google
 
Aerial photo
No photo
 
Sectional chart

 
Airport distance calculator
Flying to Orbit Heliport? Find the distance to fly.

From to 34WA

Sunrise and sunset
Times for 09-May-2021
 Local
(UTC-7)
 Zulu
(UTC)
Morning civil twilight05:1312:13
Sunrise05:4712:47
Sunset20:2503:25
Evening civil twilight20:5903:59

Current date and time
Zulu (UTC)  09-May-2021 09:06:50
Local (UTC-7)  09-May-2021 02:06:50
 
METAR
KTTD 
4nm W 
090853Z AUTO 32005KT 10SM OVC044 13/07 A3030 RMK AO2 SLP260 T01280067 56009
KPDX 
12nm W 
090853Z 33005KT 10SM BKN050 OVC060 12/07 A3031 RMK AO2 SLP262 T01170067 56008
KVUO 
14nm W 
090853Z AUTO 33004KT 10SM BKN045 OVC060 12/06 A3030 RMK AO2 SLP261 T01220061 56008
TAF
KTTD 
4nm W 
090520Z 0906/1006 VRB03KT P6SM BKN040 OVC060 FM091200 VRB03KT P6SM BKN030 FM092100 28005KT P6SM BKN045 FM100300 VRB02KT P6SM SCT025 BKN045
KPDX 
12nm W 
090520Z 0906/1006 34005KT P6SM BKN040 OVC060 FM091100 VRB02KT P6SM SCT027 BKN030 FM092000 32006KT P6SM SCT030 BKN050
NOTAMs
Click for the latest NOTAMs
NOTAMs are issued by the DoD/FAA and will open in a separate window not controlled by AirNav.

 

 
 

Would you like to see your business listed on this page?

 If your business provides an interesting product or service to pilots, flight crews, aircraft, or users of the Orbit Heliport, you should consider listing it here.  To start the listing process, click on the button below
 
Add a business
 

Other Pages about Orbit Heliport

Update a link
 
Copyright © AirNav, LLC. All rights reserved. Privacy Policy  Contact